createdAt,value
2019-04-03T00:00:13.002Z,16.90
2019-04-03T00:01:12.863Z,17.00
2019-04-03T00:02:12.845Z,17.70
2019-04-03T00:03:12.843Z,16.90
2019-04-03T00:04:12.794Z,17.10
2019-04-03T00:05:12.782Z,18.10
2019-04-03T00:06:12.736Z,19.60
2019-04-03T00:07:12.698Z,16.60
2019-04-03T00:08:12.777Z,18.30
2019-04-03T00:09:12.737Z,17.80
2019-04-03T00:10:12.640Z,16.20
2019-04-03T00:11:12.585Z,18.50
2019-04-03T00:12:12.684Z,16.80
2019-04-03T00:13:12.566Z,17.30
2019-04-03T00:14:12.993Z,18.40
2019-04-03T00:15:13.675Z,16.40
2019-04-03T00:16:15.271Z,16.20
2019-04-03T00:17:15.028Z,16.50
2019-04-03T00:18:12.404Z,18.00
2019-04-03T00:19:12.395Z,17.40
2019-04-03T00:20:14.350Z,17.90
2019-04-03T00:21:12.408Z,17.70
2019-04-03T00:22:14.286Z,16.50
2019-04-03T00:23:12.237Z,18.80
2019-04-03T00:24:13.219Z,16.30
2019-04-03T00:25:12.250Z,16.10
2019-04-03T00:26:13.174Z,17.30
2019-04-03T00:27:12.140Z,18.20
2019-04-03T00:28:12.103Z,16.90
2019-04-03T00:29:12.078Z,18.80
2019-04-03T00:30:12.048Z,17.20
2019-04-03T00:31:12.092Z,15.90
2019-04-03T00:32:12.008Z,19.90
2019-04-03T00:33:11.963Z,18.70
2019-04-03T00:34:12.055Z,17.80
2019-04-03T00:35:11.912Z,18.80
2019-04-03T00:36:11.891Z,18.00
2019-04-03T00:37:11.849Z,18.00
2019-04-03T00:38:11.833Z,19.90
2019-04-03T00:39:11.805Z,18.20
2019-04-03T00:40:11.804Z,21.20
2019-04-03T00:41:11.749Z,18.90
2019-04-03T00:42:11.712Z,18.50
2019-04-03T00:43:11.731Z,17.20
2019-04-03T00:44:11.657Z,19.70
2019-04-03T00:45:11.639Z,19.20
2019-04-03T00:46:11.612Z,19.80
2019-04-03T00:47:11.652Z,20.90
2019-04-03T00:48:11.546Z,19.60
2019-04-03T00:49:11.603Z,18.70
2019-04-03T00:50:11.475Z,19.70
2019-04-03T00:51:11.468Z,21.40
2019-04-03T00:52:11.442Z,19.60
2019-04-03T00:53:11.531Z,21.40
2019-04-03T00:54:11.363Z,20.10
2019-04-03T00:55:11.330Z,20.50
2019-04-03T00:56:11.407Z,19.70
2019-04-03T00:57:11.275Z,19.50
2019-04-03T00:58:11.238Z,22.60
2019-04-03T00:59:11.214Z,22.30
2019-04-03T01:00:11.190Z,21.20
2019-04-03T01:01:11.358Z,22.00
2019-04-03T01:02:11.132Z,22.70
2019-04-03T01:03:11.123Z,21.10
2019-04-03T01:04:11.261Z,23.00
2019-04-03T01:05:11.054Z,24.20
2019-04-03T01:06:11.027Z,24.40
2019-04-03T01:07:11.005Z,23.30
2019-04-03T01:08:10.988Z,23.80
2019-04-03T01:09:10.940Z,23.50
2019-04-03T01:10:10.930Z,22.70
2019-04-03T01:11:10.907Z,24.30
2019-04-03T01:12:10.925Z,25.00
2019-04-03T01:13:10.853Z,23.20
2019-04-03T01:14:10.835Z,23.10
2019-04-03T01:15:10.866Z,23.20
2019-04-03T01:16:10.799Z,25.10
2019-04-03T01:17:10.742Z,23.60
2019-04-03T01:18:10.873Z,25.70
2019-04-03T01:19:10.685Z,25.00
2019-04-03T01:20:10.641Z,25.30
2019-04-03T01:21:10.607Z,24.70
2019-04-03T01:22:10.586Z,24.00
2019-04-03T01:23:10.546Z,25.50
2019-04-03T01:24:10.518Z,25.90
2019-04-03T01:25:10.481Z,25.40
2019-04-03T01:26:10.517Z,24.40
2019-04-03T01:27:11.938Z,26.10
2019-04-03T01:28:11.733Z,24.20
2019-04-03T01:29:10.604Z,24.00
2019-04-03T01:30:10.408Z,23.10
2019-04-03T01:31:10.328Z,25.80
2019-04-03T01:32:10.293Z,24.60
2019-04-03T01:33:10.263Z,26.80
2019-04-03T01:34:10.267Z,25.00
2019-04-03T01:35:10.212Z,24.90
2019-04-03T01:36:10.182Z,27.00
2019-04-03T01:37:10.218Z,25.30
2019-04-03T01:38:10.133Z,24.40
2019-04-03T01:39:10.107Z,26.00
2019-04-03T01:40:10.071Z,24.60
2019-04-03T01:41:11.042Z,26.00
2019-04-03T01:42:10.054Z,23.80
2019-04-03T01:43:09.965Z,25.50
2019-04-03T01:44:09.948Z,26.90
2019-04-03T01:45:09.968Z,25.60
2019-04-03T01:46:09.888Z,24.60
2019-04-03T01:47:09.905Z,25.80
2019-04-03T01:48:09.823Z,24.60
2019-04-03T01:49:09.873Z,28.00
2019-04-03T01:50:09.775Z,27.70
2019-04-03T01:51:09.747Z,25.00
2019-04-03T01:52:09.732Z,25.80
2019-04-03T01:53:10.981Z,26.00
2019-04-03T01:54:09.667Z,26.40
2019-04-03T01:55:16.485Z,24.60
2019-04-03T01:56:09.630Z,26.20
2019-04-03T01:57:09.592Z,25.60
2019-04-03T01:58:09.555Z,25.80
2019-04-03T01:59:09.589Z,24.40
2019-04-03T02:00:09.519Z,24.50
2019-04-03T02:01:09.515Z,24.30
2019-04-03T02:02:09.452Z,26.20
2019-04-03T02:03:10.278Z,27.00
2019-04-03T02:04:12.025Z,27.50
2019-04-03T02:05:12.071Z,29.10
2019-04-03T02:06:09.349Z,26.50
2019-04-03T02:07:09.329Z,26.70
2019-04-03T02:08:09.276Z,27.90
2019-04-03T02:09:10.296Z,25.40
2019-04-03T02:10:09.230Z,26.80
2019-04-03T02:11:10.200Z,25.50
2019-04-03T02:12:09.158Z,26.30
2019-04-03T02:13:09.146Z,28.80
2019-04-03T02:14:09.112Z,29.80
2019-04-03T02:15:09.077Z,28.40
2019-04-03T02:16:09.040Z,27.10
2019-04-03T02:17:10.148Z,28.00
2019-04-03T02:18:08.988Z,29.10
2019-04-03T02:19:08.948Z,28.90
2019-04-03T02:20:09.032Z,26.40
2019-04-03T02:21:09.914Z,26.70
2019-04-03T02:22:09.021Z,28.30
2019-04-03T02:23:08.847Z,24.00
2019-04-03T02:24:08.976Z,24.40
2019-04-03T02:25:08.781Z,30.40
2019-04-03T02:26:08.934Z,25.50
2019-04-03T02:27:10.731Z,25.80
2019-04-03T02:28:08.710Z,23.60
2019-04-03T02:29:09.681Z,26.70
2019-04-03T02:30:12.277Z,25.00
2019-04-03T02:31:08.659Z,26.00
2019-04-03T02:32:08.641Z,25.80
2019-04-03T02:33:09.562Z,26.70
2019-04-03T02:34:08.718Z,29.20
2019-04-03T02:35:08.564Z,26.60
2019-04-03T02:36:11.434Z,25.90
2019-04-03T02:37:08.727Z,27.20
2019-04-03T02:38:08.422Z,29.90
2019-04-03T02:39:08.418Z,28.90
2019-04-03T02:40:08.544Z,27.70
2019-04-03T02:41:08.344Z,26.10
2019-04-03T02:42:09.637Z,24.30
2019-04-03T02:43:09.380Z,24.60
2019-04-03T02:44:08.465Z,20.50
2019-04-03T02:45:08.241Z,19.80
2019-04-03T02:46:08.200Z,16.40
2019-04-03T02:47:08.427Z,16.20
2019-04-03T02:48:08.424Z,15.90
2019-04-03T02:49:10.149Z,15.50
2019-04-03T02:50:08.096Z,18.10
2019-04-03T02:51:08.052Z,14.30
2019-04-03T02:52:08.048Z,12.10
2019-04-03T02:53:08.002Z,13.10
2019-04-03T02:54:07.954Z,13.70
2019-04-03T02:55:09.005Z,11.90
2019-04-03T02:56:11.866Z,10.90
2019-04-03T02:57:08.892Z,11.50
2019-04-03T02:58:07.877Z,10.80
2019-04-03T02:59:07.836Z,10.70
2019-04-03T03:00:07.798Z,11.40
2019-04-03T03:01:07.964Z,10.80
2019-04-03T03:02:11.450Z,11.30
2019-04-03T03:03:07.715Z,11.80
2019-04-03T03:04:07.673Z,10.60
2019-04-03T03:05:07.977Z,9.40
2019-04-03T03:06:07.624Z,9.60
2019-04-03T03:07:07.825Z,10.30
2019-04-03T03:08:09.110Z,9.80
2019-04-03T03:09:07.623Z,8.20
2019-04-03T03:10:07.506Z,10.70
2019-04-03T03:11:07.745Z,7.40
2019-04-03T03:12:07.437Z,7.70
2019-04-03T03:13:07.544Z,7.60
2019-04-03T03:14:07.839Z,7.60
2019-04-03T03:15:10.962Z,7.90
2019-04-03T03:16:07.528Z,6.70
2019-04-03T03:17:07.987Z,6.40
2019-04-03T03:18:07.335Z,5.70
2019-04-03T03:19:07.348Z,5.90
2019-04-03T03:20:07.983Z,4.60
2019-04-03T03:21:07.369Z,6.80
2019-04-03T03:22:07.175Z,5.90
2019-04-03T03:23:07.334Z,5.20
2019-04-03T03:24:07.128Z,5.60
2019-04-03T03:25:07.082Z,5.70
2019-04-03T03:26:07.331Z,6.50
2019-04-03T03:27:09.506Z,5.90
2019-04-03T03:28:09.024Z,5.00
2019-04-03T03:29:16.572Z,6.00
2019-04-03T03:30:30.366Z,5.40
2019-04-03T03:31:57.634Z,8.40
2019-04-03T03:32:15.443Z,6.90
2019-04-03T03:33:27.286Z,7.90
2019-04-03T03:34:06.833Z,5.90
2019-04-03T03:35:13.795Z,5.70
2019-04-03T03:36:07.229Z,5.20
2019-04-03T03:37:06.824Z,5.40
2019-04-03T03:38:08.003Z,5.10
2019-04-03T03:39:10.348Z,5.90
2019-04-03T03:40:08.099Z,5.90
2019-04-03T03:41:08.828Z,5.10
2019-04-03T03:42:06.595Z,6.50
2019-04-03T03:43:07.618Z,5.60
2019-04-03T03:44:09.563Z,8.30
2019-04-03T03:45:06.527Z,5.20
2019-04-03T03:46:13.470Z,6.20
2019-04-03T03:47:06.449Z,5.40
2019-04-03T03:48:09.386Z,6.20
2019-04-03T03:49:17.490Z,5.10
2019-04-03T03:50:12.957Z,6.00
2019-04-03T03:51:06.401Z,6.20
2019-04-03T03:52:06.474Z,6.60
2019-04-03T03:53:13.441Z,5.70
2019-04-03T03:54:06.458Z,6.60
2019-04-03T03:55:06.271Z,5.60
2019-04-03T03:56:15.180Z,5.70
2019-04-03T03:57:07.328Z,5.80
2019-04-03T03:58:14.168Z,9.90
2019-04-03T03:59:06.273Z,7.50
2019-04-03T04:00:06.097Z,6.80
2019-04-03T04:01:14.280Z,6.30
2019-04-03T04:02:06.573Z,6.00
2019-04-03T04:03:28.073Z,7.60
2019-04-03T04:04:05.979Z,7.80
2019-04-03T04:05:10.427Z,5.70
2019-04-03T04:06:06.037Z,6.00
2019-04-03T04:07:05.943Z,6.30
2019-04-03T04:08:09.147Z,6.80
2019-04-03T04:09:06.004Z,7.30
2019-04-03T04:10:05.852Z,7.80
2019-04-03T04:11:05.763Z,6.70
2019-04-03T04:12:07.355Z,7.00
2019-04-03T04:13:05.816Z,7.90
2019-04-03T04:14:05.952Z,7.80
2019-04-03T04:15:05.689Z,6.10
2019-04-03T04:16:05.639Z,7.80
2019-04-03T04:17:08.593Z,7.30
2019-04-03T04:18:05.581Z,7.00
2019-04-03T04:19:05.544Z,5.90
2019-04-03T04:20:06.226Z,6.50
2019-04-03T04:21:09.719Z,6.40
2019-04-03T04:22:05.456Z,7.90
2019-04-03T04:23:05.426Z,7.30
2019-04-03T04:24:05.456Z,8.20
2019-04-03T04:25:05.436Z,8.90
2019-04-03T04:26:05.343Z,8.80
2019-04-03T04:27:05.368Z,6.30
2019-04-03T04:28:08.326Z,7.20
2019-04-03T04:29:05.258Z,7.80
2019-04-03T04:30:05.268Z,6.60
2019-04-03T04:31:05.298Z,6.30
2019-04-03T04:32:05.162Z,6.00
2019-04-03T04:33:05.203Z,6.40
2019-04-03T04:34:05.161Z,7.90
2019-04-03T04:35:05.078Z,6.80
2019-04-03T04:36:05.061Z,6.20
2019-04-03T04:37:05.124Z,11.10
2019-04-03T04:38:05.024Z,8.10
2019-04-03T04:39:05.038Z,7.90
2019-04-03T04:40:04.945Z,6.70
2019-04-03T04:41:04.915Z,6.80
2019-04-03T04:42:04.977Z,7.50
2019-04-03T04:43:07.422Z,7.60
2019-04-03T04:44:04.843Z,6.60
2019-04-03T04:45:04.822Z,7.60
2019-04-03T04:46:04.771Z,7.40
2019-04-03T04:47:04.747Z,7.00
2019-04-03T04:48:04.847Z,7.50
2019-04-03T04:49:04.722Z,8.00
2019-04-03T04:50:04.665Z,7.40
2019-04-03T04:51:04.628Z,9.20
2019-04-03T04:52:04.681Z,7.90
2019-04-03T04:53:04.562Z,7.30
2019-04-03T04:54:04.551Z,8.10
2019-04-03T04:55:04.749Z,7.60
2019-04-03T04:56:04.779Z,8.30
2019-04-03T04:57:04.470Z,7.30
2019-04-03T04:58:04.912Z,7.60
2019-04-03T04:59:04.443Z,7.80
2019-04-03T05:00:04.395Z,8.40
2019-04-03T05:01:04.572Z,8.70
2019-04-03T05:02:04.365Z,8.00
2019-04-03T05:03:04.322Z,9.60
2019-04-03T05:04:04.266Z,9.00
2019-04-03T05:05:04.256Z,9.50
2019-04-03T05:06:05.221Z,8.70
2019-04-03T05:07:04.217Z,8.20
2019-04-03T05:08:04.567Z,9.90
2019-04-03T05:09:04.461Z,7.80
2019-04-03T05:10:06.568Z,9.60
2019-04-03T05:11:05.445Z,8.90
2019-04-03T05:12:05.042Z,8.50
2019-04-03T05:13:04.013Z,9.40
2019-04-03T05:14:04.002Z,10.00
2019-04-03T05:15:03.945Z,8.50
2019-04-03T05:16:04.056Z,9.30
2019-04-03T05:17:04.032Z,10.20
2019-04-03T05:18:04.561Z,9.60
2019-04-03T05:19:10.444Z,8.30
2019-04-03T05:20:04.073Z,9.90
2019-04-03T05:21:03.785Z,9.50
2019-04-03T05:22:03.852Z,9.00
2019-04-03T05:23:03.844Z,9.20
2019-04-03T05:24:11.436Z,9.60
2019-04-03T05:25:03.682Z,10.80
2019-04-03T05:26:10.520Z,9.20
2019-04-03T05:27:03.730Z,7.80
2019-04-03T05:28:04.426Z,8.90
2019-04-03T05:29:04.707Z,9.80
2019-04-03T05:30:05.535Z,9.00
2019-04-03T05:31:03.494Z,9.00
2019-04-03T05:32:04.582Z,10.30
2019-04-03T05:33:04.535Z,9.80
2019-04-03T05:34:03.474Z,10.10
2019-04-03T05:35:03.667Z,11.80
2019-04-03T05:36:03.595Z,9.10
2019-04-03T05:37:03.347Z,11.70
2019-04-03T05:38:04.410Z,11.60
2019-04-03T05:39:04.540Z,9.10
2019-04-03T05:40:03.505Z,9.40
2019-04-03T05:41:03.242Z,10.20
2019-04-03T05:42:03.183Z,8.70
2019-04-03T05:43:10.037Z,10.90
2019-04-03T05:44:03.308Z,11.40
2019-04-03T05:45:04.581Z,8.50
2019-04-03T05:46:05.139Z,11.40
2019-04-03T05:47:03.074Z,13.10
2019-04-03T05:48:03.070Z,9.00
2019-04-03T05:49:02.996Z,8.90
2019-04-03T05:50:02.996Z,9.00
2019-04-03T05:51:02.972Z,9.60
2019-04-03T05:52:04.659Z,12.20
2019-04-03T05:53:05.640Z,11.20
2019-04-03T05:54:02.858Z,9.60
2019-04-03T05:55:02.806Z,9.30
2019-04-03T05:56:02.892Z,10.60
2019-04-03T05:57:02.960Z,9.30
2019-04-03T05:58:03.129Z,9.30
2019-04-03T05:59:03.075Z,10.30
2019-04-03T06:00:04.403Z,9.10
2019-04-03T06:01:05.456Z,9.70
2019-04-03T06:02:14.210Z,11.30
2019-04-03T06:03:02.566Z,12.30
2019-04-03T06:04:10.639Z,13.20
2019-04-03T06:05:02.564Z,9.70
2019-04-03T06:06:02.514Z,8.90
2019-04-03T06:07:02.526Z,10.60
2019-04-03T06:08:10.044Z,10.90
2019-04-03T06:09:02.557Z,11.80
2019-04-03T06:10:02.830Z,13.50
2019-04-03T06:11:04.003Z,13.20
2019-04-03T06:12:02.324Z,12.90
2019-04-03T06:13:05.096Z,12.70
2019-04-03T06:14:19.025Z,11.40
2019-04-03T06:15:02.265Z,10.50
2019-04-03T06:16:03.218Z,12.70
2019-04-03T06:17:02.177Z,8.80
2019-04-03T06:18:02.177Z,9.40
2019-04-03T06:19:02.106Z,10.40
2019-04-03T06:20:02.236Z,10.00
2019-04-03T06:21:02.045Z,10.10
2019-04-03T06:22:20.921Z,10.10
2019-04-03T06:23:02.133Z,11.10
2019-04-03T06:24:01.961Z,12.60
2019-04-03T06:25:02.291Z,10.50
2019-04-03T06:26:08.530Z,11.00
2019-04-03T06:27:01.898Z,10.30
2019-04-03T06:29:01.912Z,14.30
2019-04-03T06:30:02.090Z,11.30
2019-04-03T06:31:01.774Z,10.70
2019-04-03T06:32:05.744Z,10.60
2019-04-03T06:33:02.187Z,9.70
2019-04-03T06:34:10.726Z,11.10
2019-04-03T06:35:01.650Z,10.80
2019-04-03T06:36:01.857Z,9.80
2019-04-03T06:37:01.606Z,9.90
2019-04-03T06:38:03.610Z,10.40
2019-04-03T06:39:01.583Z,10.50
2019-04-03T06:40:02.959Z,10.20
2019-04-03T06:41:01.469Z,11.30
2019-04-03T06:42:01.468Z,11.60
2019-04-03T06:43:01.458Z,11.00
2019-04-03T06:44:03.432Z,10.30
2019-04-03T06:45:01.376Z,11.10
2019-04-03T06:46:03.737Z,10.40
2019-04-03T06:47:01.581Z,10.60
2019-04-03T06:48:04.235Z,11.00
2019-04-03T06:49:01.440Z,11.20
2019-04-03T06:50:01.317Z,10.60
2019-04-03T06:51:01.383Z,11.80
2019-04-03T06:52:01.232Z,11.00
2019-04-03T06:53:08.116Z,10.60
2019-04-03T06:54:01.103Z,10.80
2019-04-03T06:55:03.013Z,11.80
2019-04-03T06:56:01.222Z,10.70
2019-04-03T06:57:01.065Z,11.00
2019-04-03T06:58:01.009Z,11.70
2019-04-03T06:59:17.097Z,12.70
2019-04-03T07:00:01.248Z,10.90
2019-04-03T07:01:00.938Z,10.30
2019-04-03T07:02:01.088Z,10.60
2019-04-03T07:03:02.923Z,10.20
2019-04-03T07:04:00.868Z,11.00
2019-04-03T07:05:02.838Z,12.20
2019-04-03T07:06:00.811Z,10.10
2019-04-03T07:07:01.818Z,11.10
2019-04-03T07:08:01.278Z,10.90
2019-04-03T07:09:00.720Z,10.20
2019-04-03T07:10:02.370Z,11.50
2019-04-03T07:11:00.728Z,12.00
2019-04-03T07:12:00.669Z,11.30
2019-04-03T07:13:00.662Z,11.50
2019-04-03T07:14:00.595Z,10.10
2019-04-03T07:15:02.136Z,10.10
2019-04-03T07:16:00.604Z,9.90
2019-04-03T07:17:01.482Z,9.40
2019-04-03T07:18:07.331Z,11.30
2019-04-03T07:19:00.450Z,9.50
2019-04-03T07:20:12.529Z,11.40
2019-04-03T07:21:00.550Z,10.50
2019-04-03T07:22:00.346Z,13.80
2019-04-03T07:23:00.453Z,11.00
2019-04-03T07:24:02.325Z,10.30
2019-04-03T07:25:02.756Z,11.10
2019-04-03T07:26:00.204Z,12.40
2019-04-03T07:27:01.522Z,13.30
2019-04-03T07:28:00.174Z,11.70
2019-04-03T07:29:01.314Z,12.80
2019-04-03T07:30:00.393Z,12.20
2019-04-03T07:31:00.075Z,10.80
2019-04-03T07:32:00.201Z,11.80
2019-04-03T07:33:01.173Z,11.20
2019-04-03T07:34:01.786Z,11.60
2019-04-03T07:35:00.044Z,10.40
2019-04-03T07:35:59.962Z,11.20
2019-04-03T07:37:00.977Z,12.70
2019-04-03T07:38:00.099Z,13.90
2019-04-03T07:38:59.896Z,11.20
2019-04-03T07:40:00.093Z,13.10
2019-04-03T07:40:59.787Z,12.60
2019-04-03T07:42:06.642Z,11.20
2019-04-03T07:42:59.907Z,12.10
2019-04-03T07:43:59.690Z,11.80
2019-04-03T07:45:01.585Z,12.50
2019-04-03T07:46:03.137Z,12.10
2019-04-03T07:46:59.612Z,13.90
2019-04-03T07:47:59.598Z,14.80
2019-04-03T07:49:00.284Z,12.90
2019-04-03T07:49:59.706Z,12.20
2019-04-03T07:50:59.773Z,13.80
2019-04-03T07:51:59.555Z,11.00
2019-04-03T07:52:59.752Z,13.00
2019-04-03T07:53:59.561Z,14.30
2019-04-03T07:54:59.471Z,11.50
2019-04-03T07:55:59.541Z,10.60
2019-04-03T07:56:59.629Z,11.70
2019-04-03T07:57:59.998Z,10.90
2019-04-03T07:59:02.678Z,12.10
2019-04-03T07:59:59.291Z,13.50
2019-04-03T08:00:59.220Z,11.10
2019-04-03T08:01:59.432Z,12.70
2019-04-03T08:02:59.249Z,12.80
2019-04-03T08:03:59.129Z,14.10
2019-04-03T08:05:00.395Z,11.70
2019-04-03T08:05:59.313Z,10.20
2019-04-03T08:06:59.114Z,10.60
2019-04-03T08:08:01.505Z,10.90
2019-04-03T08:09:07.365Z,9.50
2019-04-03T08:10:00.021Z,11.30
2019-04-03T08:10:59.727Z,11.60
2019-04-03T08:11:58.964Z,10.50
2019-04-03T08:12:59.902Z,9.80
2019-04-03T08:13:59.062Z,9.10
2019-04-03T08:14:59.175Z,9.60
2019-04-03T08:15:58.781Z,11.80
2019-04-03T08:16:58.730Z,10.40
2019-04-03T08:17:59.074Z,10.10
2019-04-03T08:18:58.696Z,10.80
2019-04-03T08:19:58.717Z,10.40
2019-04-03T08:21:01.233Z,9.10
2019-04-03T08:22:01.122Z,11.50
2019-04-03T08:22:58.582Z,9.70
2019-04-03T08:23:58.588Z,10.10
2019-04-03T08:24:58.532Z,9.90
2019-04-03T08:25:58.483Z,8.70
2019-04-03T08:26:58.450Z,9.50
2019-04-03T08:27:58.451Z,9.30
2019-04-03T08:29:00.673Z,9.60
2019-04-03T08:29:58.330Z,9.70
2019-04-03T08:30:58.329Z,12.70
2019-04-03T08:31:58.285Z,11.30
2019-04-03T08:32:58.510Z,9.30
2019-04-03T08:33:59.548Z,9.90
2019-04-03T08:34:58.219Z,9.70
2019-04-03T08:35:58.200Z,9.20
2019-04-03T08:37:00.141Z,9.00
2019-04-03T08:37:58.223Z,9.20
2019-04-03T08:38:58.179Z,9.10
2019-04-03T08:39:58.902Z,9.20
2019-04-03T08:40:58.246Z,10.20
2019-04-03T08:41:58.119Z,10.50
2019-04-03T08:43:00.402Z,9.70
2019-04-03T08:43:57.979Z,10.90
2019-04-03T08:44:58.038Z,8.70
2019-04-03T08:45:57.891Z,10.40
2019-04-03T08:46:57.850Z,9.80
2019-04-03T08:47:58.120Z,9.90
2019-04-03T08:48:57.785Z,10.10
2019-04-03T08:49:58.369Z,10.30
2019-04-03T08:50:58.409Z,8.80
2019-04-03T08:51:57.729Z,12.20
2019-04-03T08:52:57.920Z,9.90
2019-04-03T08:53:57.700Z,9.50
2019-04-03T08:54:57.632Z,10.40
2019-04-03T08:55:57.623Z,10.80
2019-04-03T08:56:57.785Z,9.20
2019-04-03T08:57:57.554Z,9.70
2019-04-03T08:58:58.377Z,9.50
2019-04-03T08:59:58.183Z,10.70
2019-04-03T09:00:57.552Z,10.90
2019-04-03T09:01:57.443Z,10.00
2019-04-03T09:02:57.403Z,8.70
2019-04-03T09:03:57.497Z,11.00
2019-04-03T09:04:57.343Z,9.70
2019-04-03T09:05:57.506Z,9.30
2019-04-03T09:06:57.493Z,8.80
2019-04-03T09:07:57.266Z,10.20
2019-04-03T09:08:57.851Z,12.50
2019-04-03T09:10:00.352Z,9.80
2019-04-03T09:10:57.266Z,10.60
2019-04-03T09:11:57.118Z,11.10
2019-04-03T09:12:57.100Z,9.80
2019-04-03T09:13:57.082Z,9.90
2019-04-03T09:14:57.859Z,8.90
2019-04-03T09:16:04.600Z,11.50
2019-04-03T09:16:57.001Z,10.80
2019-04-03T09:18:05.577Z,9.20
2019-04-03T09:18:56.954Z,9.70
2019-04-03T09:19:57.415Z,9.50
2019-04-03T09:20:56.927Z,9.90
2019-04-03T09:21:56.941Z,10.10
2019-04-03T09:22:56.895Z,9.70
2019-04-03T09:23:58.322Z,11.80
2019-04-03T09:24:59.911Z,10.30
2019-04-03T09:25:56.881Z,10.40
2019-04-03T09:26:56.791Z,9.90
2019-04-03T09:28:04.574Z,11.30
2019-04-03T09:28:56.653Z,10.10
2019-04-03T09:29:56.695Z,10.10
2019-04-03T09:30:56.652Z,9.90
2019-04-03T09:31:56.775Z,10.70
2019-04-03T09:32:59.912Z,9.80
2019-04-03T09:34:04.281Z,10.50
2019-04-03T09:34:56.476Z,12.20
2019-04-03T09:36:04.324Z,10.40
2019-04-03T09:37:06.325Z,9.70
2019-04-03T09:37:56.411Z,9.70
2019-04-03T09:39:03.068Z,8.60
2019-04-03T09:39:56.348Z,10.00
2019-04-03T09:40:56.288Z,9.50
2019-04-03T09:41:56.328Z,11.70
2019-04-03T09:43:25.106Z,11.20
2019-04-03T09:43:56.264Z,10.60
2019-04-03T09:45:17.257Z,10.60
2019-04-03T09:46:00.299Z,10.70
2019-04-03T09:46:56.268Z,10.80
2019-04-03T09:47:56.175Z,10.80
2019-04-03T09:48:56.060Z,11.70
2019-04-03T09:49:56.327Z,11.80
2019-04-03T09:50:56.448Z,11.90
2019-04-03T09:51:57.068Z,12.30
2019-04-03T09:52:56.064Z,11.50
2019-04-03T09:53:57.890Z,12.00
2019-04-03T09:54:55.903Z,11.50
2019-04-03T09:55:55.920Z,11.40
2019-04-03T09:57:01.696Z,12.30
2019-04-03T09:57:55.815Z,11.70
2019-04-03T09:58:58.116Z,12.20
2019-04-03T09:59:55.836Z,11.70
2019-04-03T10:01:05.003Z,11.60
2019-04-03T10:01:55.892Z,11.50
2019-04-03T10:03:56.254Z,11.50
2019-04-03T10:05:24.687Z,11.50
2019-04-03T10:05:55.599Z,12.50
2019-04-03T10:06:56.655Z,13.80
2019-04-03T10:07:55.522Z,12.60
2019-04-03T10:09:02.217Z,11.70
2019-04-03T10:09:55.469Z,12.50
2019-04-03T10:11:19.576Z,12.20
2019-04-03T10:11:55.414Z,12.60
2019-04-03T10:13:10.199Z,13.00
2019-04-03T10:13:57.781Z,14.40
2019-04-03T10:14:58.436Z,13.40
2019-04-03T10:15:55.283Z,12.70
2019-04-03T10:16:55.273Z,13.90
2019-04-03T10:17:55.553Z,14.60
2019-04-03T10:18:55.197Z,13.40
2019-04-03T10:19:55.181Z,13.40
2019-04-03T10:20:55.328Z,13.40
2019-04-03T10:21:55.251Z,13.80
2019-04-03T10:22:56.244Z,20.10
2019-04-03T10:23:55.250Z,21.90
2019-04-03T10:24:55.274Z,23.10
2019-04-03T10:25:54.995Z,18.20
2019-04-03T10:26:55.103Z,15.30
2019-04-03T10:27:54.949Z,16.40
2019-04-03T10:28:54.909Z,16.10
2019-04-03T10:29:56.020Z,16.40
2019-04-03T10:30:54.906Z,15.10
2019-04-03T10:31:56.070Z,15.60
2019-04-03T10:32:54.805Z,16.00
2019-04-03T10:33:54.770Z,16.00
2019-04-03T10:34:57.091Z,17.80
2019-04-03T10:35:55.846Z,14.90
2019-04-03T10:36:54.818Z,16.10
2019-04-03T10:37:54.676Z,15.20
2019-04-03T10:38:54.698Z,16.30
2019-04-03T10:40:56.277Z,16.70
2019-04-03T10:41:55.047Z,16.60
2019-04-03T10:42:54.541Z,13.80
2019-04-03T10:43:54.700Z,14.00
2019-04-03T10:45:16.618Z,15.30
2019-04-03T10:45:54.444Z,14.90
2019-04-03T10:46:54.638Z,16.30
2019-04-03T10:47:56.593Z,14.30
2019-04-03T10:50:19.603Z,15.10
2019-04-03T10:51:19.776Z,14.70
2019-04-03T10:55:28.504Z,15.50
2019-04-03T10:56:01.374Z,15.70
2019-04-03T10:57:03.401Z,16.30
2019-04-03T10:59:10.728Z,15.20
2019-04-03T11:00:01.227Z,15.70
2019-04-03T11:01:03.368Z,15.10
2019-04-03T11:02:01.280Z,14.80
2019-04-03T11:03:02.295Z,15.60
2019-04-03T11:04:01.248Z,16.00
2019-04-03T11:09:07.907Z,16.50
2019-04-03T11:09:31.804Z,17.10
2019-04-03T11:10:46.497Z,15.80
2019-04-03T11:11:31.675Z,15.60
2019-04-03T11:14:08.650Z,17.60
2019-04-03T11:16:34.454Z,16.10
2019-04-03T11:17:33.439Z,15.70
2019-04-03T11:18:40.961Z,16.80
2019-04-03T11:19:33.289Z,17.50
2019-04-03T11:20:41.016Z,14.80
2019-04-03T11:21:33.192Z,15.20
2019-04-03T11:22:41.091Z,16.50
2019-04-03T11:23:38.986Z,15.20
2019-04-03T11:24:33.469Z,14.60
2019-04-03T11:25:33.096Z,16.60
2019-04-03T11:27:42.085Z,14.50
2019-04-03T11:28:36.671Z,13.60
2019-04-03T11:29:33.177Z,13.70
2019-04-03T11:30:33.997Z,13.30
2019-04-03T11:31:36.073Z,14.80
2019-04-03T11:32:47.563Z,14.00
2019-04-03T11:33:33.012Z,13.80
2019-04-03T11:34:33.963Z,13.10
2019-04-03T11:35:32.868Z,12.60
2019-04-03T11:36:32.811Z,13.40
2019-04-03T11:37:33.771Z,12.90
2019-04-03T11:38:34.762Z,13.60
2019-04-03T11:39:33.138Z,13.90
2019-04-03T11:40:32.730Z,12.50
2019-04-03T11:41:32.626Z,11.70
2019-04-03T11:42:32.642Z,11.10
2019-04-03T11:43:32.625Z,12.20
2019-04-03T11:44:32.773Z,12.40
2019-04-03T11:45:32.675Z,11.40
2019-04-03T11:46:32.570Z,11.00
2019-04-03T11:47:32.549Z,11.30
2019-04-03T11:48:32.493Z,11.20
2019-04-03T11:49:32.396Z,12.00
2019-04-03T11:50:32.471Z,11.20
2019-04-03T11:51:33.983Z,10.00
2019-04-03T11:52:32.405Z,12.90
2019-04-03T11:53:33.046Z,10.50
2019-04-03T11:54:32.248Z,11.30
2019-04-03T11:55:32.220Z,11.00
2019-04-03T11:56:32.556Z,11.00
2019-04-03T11:57:32.208Z,10.00
2019-04-03T11:58:32.153Z,10.40
2019-04-03T11:59:32.117Z,10.90
2019-04-03T12:00:32.101Z,10.40
2019-04-03T12:01:32.063Z,11.60
2019-04-03T12:02:32.034Z,9.70
2019-04-03T12:03:32.066Z,9.50
2019-04-03T12:04:32.370Z,9.90
2019-04-03T12:05:31.928Z,9.70
2019-04-03T12:06:33.236Z,9.70
2019-04-03T12:07:31.883Z,9.30
2019-04-03T12:08:39.485Z,12.90
2019-04-03T12:09:32.472Z,12.90
2019-04-03T12:10:38.472Z,8.80
2019-04-03T12:11:31.795Z,8.00
2019-04-03T12:12:33.917Z,8.80
2019-04-03T12:13:31.769Z,8.80
2019-04-03T12:14:32.690Z,8.20
2019-04-03T12:15:33.788Z,7.40
2019-04-03T12:16:32.662Z,8.10
2019-04-03T12:17:31.609Z,7.30
2019-04-03T12:18:34.307Z,8.20
2019-04-03T12:19:31.655Z,7.00
2019-04-03T12:20:43.378Z,7.00
2019-04-03T12:21:31.514Z,6.70
2019-04-03T12:22:46.309Z,7.00
2019-04-03T12:23:31.414Z,8.20
2019-04-03T12:24:31.634Z,6.90
2019-04-03T12:25:34.087Z,7.10
2019-04-03T12:26:47.164Z,6.80
2019-04-03T12:27:31.590Z,7.30
2019-04-03T12:28:31.599Z,6.70
2019-04-03T12:29:31.253Z,6.70
2019-04-03T12:30:31.588Z,7.40
2019-04-03T12:31:31.359Z,6.70
2019-04-03T12:32:38.395Z,6.80
2019-04-03T12:33:31.189Z,6.30
2019-04-03T12:34:33.113Z,6.10
2019-04-03T12:35:31.077Z,6.80
2019-04-03T12:36:33.175Z,6.60
2019-04-03T12:37:31.346Z,8.00
2019-04-03T12:38:30.993Z,6.90
2019-04-03T12:39:30.982Z,6.90
2019-04-03T12:40:32.830Z,7.90
2019-04-03T12:41:30.977Z,7.00
2019-04-03T12:42:31.101Z,7.00
2019-04-03T12:43:30.865Z,7.20
2019-04-03T12:44:30.896Z,7.40
2019-04-03T12:45:30.801Z,7.10
2019-04-03T12:46:32.828Z,5.40
2019-04-03T12:47:30.744Z,4.80
2019-04-03T12:48:31.713Z,4.90
2019-04-03T12:49:30.672Z,5.00
2019-04-03T12:50:32.701Z,4.90
2019-04-03T12:51:31.531Z,4.90
2019-04-03T12:52:31.070Z,4.50
2019-04-03T12:53:30.567Z,5.10
2019-04-03T12:54:31.584Z,4.90
2019-04-03T12:55:30.578Z,5.40
2019-04-03T12:56:32.581Z,5.10
2019-04-03T12:57:32.147Z,5.30
2019-04-03T12:58:39.024Z,6.10
2019-04-03T12:59:30.409Z,6.70
2019-04-03T13:00:32.690Z,5.10
2019-04-03T13:01:30.349Z,6.70
2019-04-03T13:02:32.332Z,5.40
2019-04-03T13:03:30.339Z,6.10
2019-04-03T13:04:32.864Z,5.40
2019-04-03T13:05:30.214Z,6.20
2019-04-03T13:06:30.276Z,6.40
2019-04-03T13:07:30.559Z,6.20
2019-04-03T13:08:30.518Z,5.90
2019-04-03T13:09:30.123Z,6.00
2019-04-03T13:10:41.513Z,7.70
2019-04-03T13:11:32.644Z,6.70
2019-04-03T13:12:37.239Z,6.40
2019-04-03T13:13:30.357Z,6.50
2019-04-03T13:14:31.498Z,7.60
2019-04-03T13:15:29.969Z,5.40
2019-04-03T13:16:29.901Z,7.50
2019-04-03T13:17:30.093Z,5.80